Time;durP1;ratioP1;P1;durP2;ratioP2;P2;SDS_P1;SDS_P2;PMS_P1;PMS_P2;Temp;Humidity;BMP_temperature;BMP_pressure;BME280_temperature;BME280_humidity;BME280_pressure;Samples;Min_cycle;Max_cycle;Signal;HPM_P1;HPM_P2
2022/04/02 00:01:09;;;;;;;;;4.00;4.00;;;;;13.99;41.67;96862.41;4881577;28;103588;-87
2022/04/02 00:03:36;;;;;;;;;4.00;4.00;;;;;13.99;41.98;96865.13;4865332;28;104136;-87
2022/04/02 00:06:03;;;;;;;;;4.50;3.00;;;;;13.99;42.63;96865.13;4885960;28;103583;-87
2022/04/02 00:08:30;;;;;;;;;4.50;4.25;;;;;13.98;42.25;96866.22;4873389;28;103192;-87
2022/04/02 00:10:58;;;;;;;;;4.25;4.00;;;;;13.99;42.15;96861.59;4879392;28;102286;-87
2022/04/02 00:13:25;;;;;;;;;5.75;3.75;;;;;13.97;42.33;96867.28;4868540;28;102673;-87
2022/04/02 00:15:52;;;;;;;;;4.00;4.00;;;;;13.96;42.31;96860.19;4905230;28;103575;-86
2022/04/02 00:18:21;;;;;;;;;4.00;2.75;;;;;13.96;42.63;96862.13;4906837;28;102122;-86
2022/04/02 00:20:48;;;;;;;;;4.00;3.00;;;;;13.96;42.25;96867.56;4902316;28;103228;-84
2022/04/02 00:26:02;;;;;;;;;2.75;2.75;;;;;13.95;42.25;96866.75;4887421;28;108247;-87
2022/04/02 00:28:35;;;;;;;;;3.00;3.00;;;;;13.96;41.65;96865.63;4892834;28;102027;-87
2022/04/02 00:31:03;;;;;;;;;3.25;3.00;;;;;13.96;41.89;96870.28;4889644;28;103274;-87
2022/04/02 00:33:30;;;;;;;;;5.00;4.00;;;;;13.95;41.82;96866.75;4876427;28;101819;-87
2022/04/02 00:35:57;;;;;;;;;4.25;4.00;;;;;13.95;41.88;96869.47;4872927;28;103644;-86
2022/04/02 00:38:24;;;;;;;;;4.75;4.25;;;;;13.95;41.43;96866.75;4870809;28;102971;-86
2022/04/02 00:40:52;;;;;;;;;3.00;2.75;;;;;13.93;42.38;96868.91;4883529;28;103800;-86
2022/04/02 00:43:35;;;;;;;;;2.75;2.00;;;;;13.95;42.24;96865.94;4879560;28;102072;-87
2022/04/02 00:46:10;;;;;;;;;3.75;3.00;;;;;13.93;42.08;96881.66;4873580;28;104161;-87
2022/04/02 00:48:37;;;;;;;;;4.75;3.75;;;;;13.93;41.93;96868.91;4883008;28;103467;-87
2022/04/02 00:51:06;;;;;;;;;4.00;3.00;;;;;13.93;41.95;96878.94;4896888;28;102120;-87
2022/04/02 00:53:39;;;;;;;;;3.00;3.00;;;;;13.92;42.17;96880.84;4886643;28;102303;-87
2022/04/02 00:56:06;;;;;;;;;2.00;2.00;;;;;13.91;41.99;96881.94;4894266;28;103414;-87
2022/04/02 00:58:33;;;;;;;;;4.00;3.00;;;;;13.91;41.93;96873.78;4891467;28;102072;-86
2022/04/02 01:01:00;;;;;;;;;3.00;3.00;;;;;13.91;42.27;96879.22;4871177;28;102128;-86
2022/04/02 01:03:27;;;;;;;;;3.75;3.00;;;;;13.90;41.51;96885.72;4876377;28;102267;-87
2022/04/02 01:05:54;;;;;;;;;3.25;3.00;;;;;13.88;41.71;96884.34;4881151;28;104819;-87
2022/04/02 01:08:21;;;;;;;;;2.75;2.00;;;;;13.89;41.57;96884.09;4886196;28;103597;-87
2022/04/02 01:10:48;;;;;;;;;3.75;3.00;;;;;13.89;42.11;96886.81;4896502;28;101877;-87
2022/04/02 01:13:16;;;;;;;;;6.00;3.00;;;;;13.89;41.36;96873.22;4883012;28;101936;-87
2022/04/02 01:15:45;;;;;;;;;3.25;3.25;;;;;13.88;41.47;96877.00;4873470;28;103473;-87
2022/04/02 01:18:13;;;;;;;;;3.75;3.00;;;;;13.89;41.28;96881.38;4873839;28;102223;-87
2022/04/02 01:20:40;;;;;;;;;6.00;3.75;;;;;13.89;42.01;96884.09;4870177;28;102209;-87
2022/04/02 01:23:08;;;;;;;;;3.00;3.00;;;;;13.89;42.11;96881.38;4888084;28;102117;-87
2022/04/02 01:25:36;;;;;;;;;3.25;3.00;;;;;13.86;41.17;96881.91;4885886;28;103709;-87
2022/04/02 01:28:03;;;;;;;;;3.00;3.00;;;;;13.86;41.73;96890.06;4901133;28;102997;-87
2022/04/02 01:30:30;;;;;;;;;4.00;3.25;;;;;13.85;41.73;96889.25;4876760;28;102090;-87
2022/04/02 01:32:58;;;;;;;;;4.00;3.00;;;;;13.86;41.69;96890.06;4895430;28;102940;-87
2022/04/02 01:35:25;;;;;;;;;4.00;4.00;;;;;13.84;41.21;96882.16;4868666;28;104492;-86
2022/04/02 01:37:52;;;;;;;;;3.00;3.00;;;;;13.85;41.29;96893.84;4885310;28;102269;-86
2022/04/02 01:40:20;;;;;;;;;3.50;3.00;;;;;13.84;41.15;96882.16;4879368;28;102130;-87
2022/04/02 01:42:47;;;;;;;;;3.25;3.00;;;;;13.84;41.18;96884.06;4906308;28;103245;-87
2022/04/02 01:45:15;;;;;;;;;3.50;3.00;;;;;13.83;41.14;96893.28;4885572;28;103949;-87
2022/04/02 01:47:42;;;;;;;;;3.00;2.00;;;;;13.82;41.28;96889.75;4903340;28;103475;-87
2022/04/02 01:50:10;;;;;;;;;3.00;3.00;;;;;13.82;41.05;96889.75;4883624;28;102259;-87
2022/04/02 01:52:38;;;;;;;;;2.00;2.00;;;;;13.82;41.48;96900.63;4900302;28;101850;-87
2022/04/02 01:55:05;;;;;;;;;5.00;5.00;;;;;13.82;41.56;96894.38;4910269;28;103358;-87
2022/04/02 01:57:32;;;;;;;;;3.50;3.00;;;;;13.81;40.89;96890.84;4912408;28;103887;-87
2022/04/02 01:59:59;;;;;;;;;2.75;2.75;;;;;13.82;41.23;96897.09;4905328;28;102150;-87
2022/04/02 02:02:26;;;;;;;;;3.25;2.50;;;;;13.82;41.61;96894.38;4908882;28;102298;-87
2022/04/02 02:04:53;;;;;;;;;3.00;3.00;;;;;13.82;40.99;96905.25;4892520;28;103398;-86
2022/04/02 02:07:21;;;;;;;;;3.00;3.00;;;;;13.81;41.62;96903.63;4865489;28;102244;-87
2022/04/02 02:09:48;;;;;;;;;3.50;3.00;;;;;13.80;41.76;96901.97;4900187;28;101959;-87
2022/04/02 02:12:15;;;;;;;;;3.75;3.00;;;;;13.81;41.48;96899.00;4899722;28;102251;-87
2022/04/02 02:14:42;;;;;;;;;3.75;3.75;;;;;13.82;41.43;96905.25;4891999;28;103426;-87
2022/04/02 02:17:09;;;;;;;;;3.00;2.75;;;;;13.83;40.96;96899.53;4902160;28;102798;-87
2022/04/02 02:19:36;;;;;;;;;3.25;3.00;;;;;13.86;41.12;96903.66;4895166;28;102560;-87
2022/04/02 02:22:04;;;;;;;;;5.50;3.00;;;;;13.90;41.46;96902.03;4897566;28;102174;-87
2022/04/02 02:24:32;;;;;;;;;3.50;3.00;;;;;13.94;40.96;96913.19;4889909;28;103376;-87
2022/04/02 02:27:00;;;;;;;;;3.00;3.00;;;;;13.95;41.66;96904.78;4897171;28;102041;-87
2022/04/02 02:29:27;;;;;;;;;2.25;2.25;;;;;13.97;41.41;96908.03;4888835;28;101981;-87
2022/04/02 02:31:56;;;;;;;;;2.75;2.75;;;;;14.00;41.05;96904.81;4907079;28;102055;-87
2022/04/02 02:37:09;;;;;;;;;1.00;1.00;;;;;14.04;41.43;96908.63;4888843;28;101748;-87
2022/04/02 02:39:36;;;;;;;;;3.75;2.50;;;;;14.05;40.70;96910.25;4889914;28;102260;-87
2022/04/02 02:42:03;;;;;;;;;2.00;2.00;;;;;14.07;40.96;96907.28;4897277;28;102684;-88
2022/04/02 02:44:30;;;;;;;;;2.00;2.00;;;;;14.08;40.65;96909.75;4895408;28;103427;-87
2022/04/02 02:46:57;;;;;;;;;2.00;2.00;;;;;14.10;41.03;96913.00;4888617;28;102190;-87
2022/04/02 02:49:24;;;;;;;;;1.75;1.75;;;;;14.12;41.03;96910.03;4892597;28;102164;-86
2022/04/02 02:51:52;;;;;;;;;4.50;2.50;;;;;14.12;41.08;96916.28;4885786;28;102336;-87
2022/04/02 02:54:19;;;;;;;;;2.00;2.00;;;;;14.13;40.30;96908.94;4873713;28;108278;-87
2022/04/02 02:56:46;;;;;;;;;4.00;3.00;;;;;14.14;40.41;96907.84;4898425;28;102219;-87
2022/04/02 02:59:13;;;;;;;;;4.00;3.00;;;;;14.14;41.03;96924.97;4903594;28;101909;-87
2022/04/02 03:01:40;;;;;;;;;3.25;3.00;;;;;14.14;40.09;96910.56;4886278;28;104273;-87
2022/04/02 03:04:07;;;;;;;;;2.75;2.00;;;;;14.15;40.02;96921.19;4896872;28;103352;-87
2022/04/02 03:06:34;;;;;;;;;2.00;2.00;;;;;14.16;40.75;96922.81;4899697;28;102343;-87
2022/04/02 03:09:01;;;;;;;;;3.00;2.25;;;;;14.15;39.97;96921.19;4883118;28;102140;-87
2022/04/02 03:11:28;;;;;;;;;3.25;3.25;;;;;14.16;40.61;96920.09;4895465;28;102145;-87
2022/04/02 03:13:56;;;;;;;;;2.00;2.00;;;;;14.16;40.68;96920.09;4875870;28;103600;-87
2022/04/02 03:16:23;;;;;;;;;3.00;3.00;;;;;14.16;39.94;96920.09;4888289;28;101923;-86
2022/04/02 03:18:50;;;;;;;;;1.75;1.75;;;;;14.16;40.14;96924.72;4892515;28;102246;-87
2022/04/02 03:21:17;;;;;;;;;2.00;2.00;;;;;14.14;40.63;96919.53;4885005;28;102101;-87
2022/04/02 03:23:44;;;;;;;;;2.00;2.00;;;;;14.13;40.47;96917.09;4898563;28;103351;-87
2022/04/02 03:26:11;;;;;;;;;3.00;3.00;;;;;14.11;40.80;96920.06;4887960;28;102255;-87
2022/04/02 03:28:38;;;;;;;;;3.00;3.00;;;;;14.09;40.42;96919.53;4893917;28;101839;-87
2022/04/02 03:31:05;;;;;;;;;3.00;2.50;;;;;14.09;40.26;96919.53;4897732;28;101766;-87
2022/04/02 03:33:32;;;;;;;;;2.00;2.00;;;;;14.12;40.43;96912.75;4891610;28;103589;-87
2022/04/02 03:35:59;;;;;;;;;2.00;2.00;;;;;14.12;39.83;96915.47;4891412;28;101830;-87
2022/04/02 03:38:27;;;;;;;;;3.50;2.00;;;;;14.13;39.95;96917.94;4891109;28;102098;-86
2022/04/02 03:40:55;;;;;;;;;2.50;2.50;;;;;14.12;40.18;96916.28;4883960;28;103565;-86
2022/04/02 03:43:22;;;;;;;;;2.25;2.25;;;;;14.12;40.22;96923.63;4889137;28;103406;-87
2022/04/02 03:45:49;;;;;;;;;2.00;2.00;;;;;14.09;40.48;96924.97;4888867;28;102227;-87
2022/04/02 03:48:16;;;;;;;;;1.75;1.75;;;;;14.09;39.82;96924.97;4874414;28;104241;-87
2022/04/02 03:50:43;;;;;;;;;3.00;2.75;;;;;14.10;39.87;96928.47;4878211;28;103497;-87
2022/04/02 03:53:10;;;;;;;;;3.00;3.00;;;;;14.09;40.39;96932.31;4903342;28;103368;-87
2022/04/02 03:55:37;;;;;;;;;3.00;2.75;;;;;14.08;40.29;96931.47;4895800;28;102143;-87
2022/04/02 03:58:04;;;;;;;;;2.75;2.75;;;;;14.06;40.83;96922.75;4895734;28;101895;-87
2022/04/02 04:00:31;;;;;;;;;3.50;3.00;;;;;14.06;39.93;96940.97;4895277;28;102753;-87
2022/04/02 04:02:58;;;;;;;;;2.50;2.00;;;;;14.05;39.96;96942.06;4906469;28;103649;-86
2022/04/02 04:05:26;;;;;;;;;3.50;3.00;;;;;14.04;40.73;96938.53;4896774;28;102077;-87
2022/04/02 04:07:53;;;;;;;;;3.00;3.00;;;;;14.02;40.67;96937.97;4902159;28;102157;-87
2022/04/02 04:10:20;;;;;;;;;2.25;2.25;;;;;14.02;40.11;96948.84;4893669;28;104080;-87
2022/04/02 04:12:47;;;;;;;;;3.00;2.75;;;;;14.02;39.88;96956.16;4890971;28;103203;-87
2022/04/02 04:15:14;;;;;;;;;4.50;3.75;;;;;14.01;39.94;96952.63;4894603;28;103556;-87
2022/04/02 04:17:42;;;;;;;;;2.00;2.00;;;;;14.01;40.56;96954.53;4899974;28;102455;-87
2022/04/02 04:20:11;;;;;;;;;2.50;2.00;;;;;14.02;40.47;96958.88;4893885;28;102299;-87
2022/04/02 04:22:37;;;;;;;;;4.00;2.00;;;;;14.01;40.43;96958.06;4893043;28;103416;-87
2022/04/02 04:25:05;;;;;;;;;1.25;1.00;;;;;14.00;40.37;96961.06;4899112;28;102065;-87
2022/04/02 04:27:33;;;;;;;;;3.00;2.00;;;;;13.99;39.82;96964.84;4897150;28;103184;-87
2022/04/02 04:29:59;;;;;;;;;1.50;1.50;;;;;13.99;40.72;96970.28;4910588;28;101857;-87
2022/04/02 04:32:26;;;;;;;;;1.75;1.25;;;;;13.99;39.66;96962.97;4891040;28;103695;-87
2022/04/02 04:34:53;;;;;;;;;3.00;3.00;;;;;13.98;40.21;96964.03;4895099;28;102396;-85
2022/04/02 04:37:20;;;;;;;;;2.00;2.00;;;;;13.97;40.50;96967.00;4905430;28;102177;-87
2022/04/02 04:39:47;;;;;;;;;2.00;2.00;;;;;13.96;40.53;96966.19;4889604;28;102198;-87
2022/04/02 04:42:14;;;;;;;;;2.00;2.00;;;;;13.95;39.83;96964.56;4903317;28;103546;-87
2022/04/02 04:44:42;;;;;;;;;2.00;2.00;;;;;13.93;40.52;96974.88;4896855;28;101891;-87
2022/04/02 04:47:08;;;;;;;;;2.00;2.00;;;;;13.92;40.43;96965.06;4897646;28;105647;-87
2022/04/02 04:49:36;;;;;;;;;1.75;1.75;;;;;13.93;40.28;96972.16;4918072;28;102043;-86
2022/04/02 04:52:03;;;;;;;;;3.00;3.00;;;;;13.91;40.29;96968.88;4903118;28;103356;-87
2022/04/02 04:54:30;;;;;;;;;2.00;2.00;;;;;13.92;39.76;96975.13;4897644;28;103670;-86
2022/04/02 04:56:57;;;;;;;;;1.00;1.00;;;;;13.92;39.91;96975.94;4903899;28;102050;-86
2022/04/02 04:59:24;;;;;;;;;1.00;1.00;;;;;13.92;40.08;96981.38;4896850;28;102242;-83
2022/04/02 05:01:51;;;;;;;;;2.00;2.00;;;;;13.92;39.52;96991.41;4895401;28;103429;-86
2022/04/02 05:04:19;;;;;;;;;2.00;2.00;;;;;13.92;39.60;96981.38;4891057;28;102196;-87
2022/04/02 05:06:46;;;;;;;;;1.00;1.00;;;;;13.90;40.68;96972.69;4898785;28;102107;-87
2022/04/02 05:09:13;;;;;;;;;3.25;2.50;;;;;13.91;40.61;96981.66;4890992;28;101883;-87
2022/04/02 05:11:40;;;;;;;;;2.00;2.00;;;;;13.91;39.65;96978.94;4886485;28;103874;-87
2022/04/02 05:14:07;;;;;;;;;3.00;3.00;;;;;13.89;39.46;96984.63;4892608;28;102843;-87
2022/04/02 05:16:34;;;;;;;;;2.00;2.00;;;;;13.89;40.60;96976.47;4865940;28;102845;-87
2022/04/02 05:19:02;;;;;;;;;3.25;3.00;;;;;13.89;40.08;96990.06;4883100;28;102384;-88
2022/04/02 05:21:29;;;;;;;;;3.50;2.50;;;;;13.86;39.75;96982.44;4895222;28;103531;-87
2022/04/02 05:23:56;;;;;;;;;2.50;2.50;;;;;13.85;40.25;96981.63;4896186;28;102593;-86
2022/04/02 05:26:23;;;;;;;;;1.00;1.00;;;;;13.85;40.39;96983.50;4898485;28;102211;-87
2022/04/02 05:28:52;;;;;;;;;2.00;2.00;;;;;13.86;40.11;96987.88;4904628;28;102162;-87
2022/04/02 05:31:19;;;;;;;;;1.25;1.00;;;;;13.83;40.41;96989.19;4882033;28;103285;-87
2022/04/02 05:33:46;;;;;;;;;2.00;2.00;;;;;13.84;39.62;96990.03;4887243;28;102199;-87
2022/04/02 05:36:14;;;;;;;;;2.00;2.00;;;;;13.83;40.35;96991.91;4893523;28;101895;-87
2022/04/02 05:38:41;;;;;;;;;1.00;1.00;;;;;13.83;39.88;96991.09;4900888;28;103251;-87
2022/04/02 05:41:09;;;;;;;;;2.00;1.25;;;;;13.82;39.79;96997.63;4893228;28;103511;-87
2022/04/02 05:43:36;;;;;;;;;1.75;1.75;;;;;13.83;39.98;96999.25;4897323;28;102657;-87
2022/04/02 05:46:03;;;;;;;;;2.00;2.00;;;;;13.82;40.29;96998.41;4871162;28;101809;-87
2022/04/02 05:48:31;;;;;;;;;1.25;1.25;;;;;13.82;40.18;96994.91;4883681;28;102334;-87
2022/04/02 05:50:58;;;;;;;;;1.50;1.50;;;;;13.83;40.07;97004.66;4884947;28;103663;-86
2022/04/02 05:53:25;;;;;;;;;3.00;3.00;;;;;13.82;40.23;96997.63;4906738;28;102083;-87
2022/04/02 05:55:52;;;;;;;;;1.25;1.25;;;;;13.83;39.70;97004.66;4907338;28;102530;-87
2022/04/02 05:58:19;;;;;;;;;2.00;2.00;;;;;13.83;40.48;97008.22;4890630;28;102027;-87
2022/04/02 06:00:46;;;;;;;;;2.00;2.00;;;;;13.82;40.30;97008.50;4897895;28;103262;-87
2022/04/02 06:03:15;;;;;;;;;2.00;1.00;;;;;13.82;39.66;97013.94;4892142;28;103081;-86
2022/04/02 06:05:43;;;;;;;;;2.00;2.00;;;;;13.81;40.27;97012.28;4886783;28;102163;-87
2022/04/02 06:09:03;;;;;;;;;2.00;1.00;;;;;13.81;39.93;97012.28;4888613;28;102330;-86
2022/04/02 06:11:30;;;;;;;;;2.00;2.00;;;;;13.81;40.00;97017.72;4891520;28;107900;-86
2022/04/02 06:13:57;;;;;;;;;3.25;2.00;;;;;13.80;39.84;97016.06;4897809;28;102983;-86
2022/04/02 06:16:25;;;;;;;;;2.00;2.00;;;;;13.78;40.26;97019.03;4894476;28;102204;-87
2022/04/02 06:18:52;;;;;;;;;1.00;1.00;;;;;13.78;39.98;97023.66;4900270;28;102320;-86
2022/04/02 06:21:20;;;;;;;;;0.25;0.00;;;;;13.79;40.03;97031.53;4884521;28;103557;-87
2022/04/02 06:23:47;;;;;;;;;1.25;1.00;;;;;13.79;39.90;97030.72;4892265;28;101827;-87
2022/04/02 06:26:14;;;;;;;;;1.25;1.25;;;;;13.79;40.14;97036.97;4895522;28;101759;-87
2022/04/02 06:28:43;;;;;;;;;1.00;1.00;;;;;13.78;40.01;97029.09;4881762;28;103437;-87
2022/04/02 06:31:12;;;;;;;;;2.00;2.00;;;;;13.78;40.02;97029.91;4883344;28;103899;-87
2022/04/02 06:33:39;;;;;;;;;2.00;2.00;;;;;13.79;39.87;97041.59;4891501;28;102181;-87
2022/04/02 06:36:07;;;;;;;;;1.50;1.50;;;;;13.79;39.47;97036.16;4901907;28;102254;-86
2022/04/02 06:38:35;;;;;;;;;2.00;2.00;;;;;13.77;39.77;97028.28;4905874;28;102270;-87
2022/04/02 06:41:02;;;;;;;;;2.00;2.00;;;;;13.77;39.64;97038.34;4892189;28;103434;-87
2022/04/02 06:43:31;;;;;;;;;2.00;2.00;;;;;13.76;40.48;97036.69;4897367;28;102222;-87
2022/04/02 06:45:58;;;;;;;;;1.50;1.50;;;;;13.78;40.78;97045.38;4879818;28;102101;-87
2022/04/02 06:48:25;;;;;;;;;3.75;2.00;;;;;13.78;40.10;97045.38;4903920;28;105365;-87
2022/04/02 06:50:54;;;;;;;;;3.00;2.75;;;;;13.79;39.53;97041.59;4905165;28;108109;-87
2022/04/02 06:53:21;;;;;;;;;2.50;2.00;;;;;13.78;39.89;97034.50;4903876;28;101775;-87
2022/04/02 06:55:48;;;;;;;;;2.25;2.00;;;;;13.78;39.68;97042.66;4898304;28;103088;-88
2022/04/02 06:58:29;;;;;;;;;2.00;1.50;;;;;13.77;40.36;97043.78;4890782;28;101751;-87
2022/04/02 07:00:56;;;;;;;;;2.00;2.00;;;;;13.78;40.26;97048.09;4896930;28;108455;-89
2022/04/02 07:03:23;;;;;;;;;2.00;2.00;;;;;13.75;40.38;97046.72;4915080;28;102088;-87
2022/04/02 07:05:50;;;;;;;;;2.00;2.00;;;;;13.75;40.09;97051.34;4904151;28;101898;-88
2022/04/02 07:08:18;;;;;;;;;2.00;2.00;;;;;13.76;40.26;97058.41;4894748;28;102353;-88
2022/04/02 07:10:45;;;;;;;;;3.00;2.00;;;;;13.76;39.50;97055.72;4896988;28;103834;-87
2022/04/02 07:13:12;;;;;;;;;1.00;1.00;;;;;13.76;39.11;97061.97;4897992;28;102626;-87
2022/04/02 07:15:40;;;;;;;;;1.00;1.00;;;;;13.76;39.92;97061.13;4899247;28;102212;-87
2022/04/02 07:18:08;;;;;;;;;2.75;2.75;;;;;13.76;39.40;97058.41;4885904;28;103125;-88
2022/04/02 07:20:36;;;;;;;;;1.00;1.00;;;;;13.76;39.60;97056.53;4892830;28;103374;-87
2022/04/02 07:23:04;;;;;;;;;2.00;2.00;;;;;13.75;39.07;97062.22;4870538;28;102070;-87
2022/04/02 07:25:32;;;;;;;;;2.00;2.00;;;;;13.75;39.45;97067.66;4904141;28;103596;-87
2022/04/02 07:27:59;;;;;;;;;2.50;2.00;;;;;13.74;39.92;97066.81;4884544;28;101967;-86
2022/04/02 07:30:26;;;;;;;;;0.00;0.00;;;;;13.75;39.32;97078.50;4875617;28;103448;-87
2022/04/02 07:32:53;;;;;;;;;1.75;1.50;;;;;13.73;39.48;97072.53;4906257;28;102371;-87
2022/04/02 07:35:20;;;;;;;;;1.00;1.00;;;;;13.72;39.75;97069.00;4892133;28;102777;-87
2022/04/02 07:38:08;;;;;;;;;2.00;1.00;;;;;13.73;39.33;97077.97;4895408;28;105086;-88
2022/04/02 07:41:05;;;;;;;;;2.00;1.00;;;;;13.72;39.21;97068.16;4893599;28;108301;-88
2022/04/02 07:44:08;;;;;;;;;2.00;1.00;;;;;13.72;39.57;97076.31;4893193;28;102275;-88
2022/04/02 07:46:35;;;;;;;;;1.00;1.00;;;;;13.72;39.43;97079.03;4872814;28;103263;-89
2022/04/02 07:49:02;;;;;;;;;1.50;1.50;;;;;13.70;39.46;97082.00;4883547;28;102714;-88
2022/04/02 07:51:29;;;;;;;;;1.00;1.00;;;;;13.70;39.69;97082.00;4903787;28;103419;-88
2022/04/02 07:54:01;;;;;;;;;2.25;1.00;;;;;13.69;39.16;97085.78;4861438;28;105120;-85
2022/04/02 07:56:35;;;;;;;;;3.00;2.00;;;;;13.70;39.65;97089.31;4891765;28;102325;-87
2022/04/02 07:59:08;;;;;;;;;1.00;1.00;;;;;13.70;39.62;97087.44;4914949;28;102205;-88
2022/04/02 08:01:35;;;;;;;;;2.50;2.50;;;;;13.71;39.52;97090.97;4872425;28;103481;-88
2022/04/02 08:04:04;;;;;;;;;1.00;1.00;;;;;13.71;39.69;97093.69;4902037;28;102975;-88
2022/04/02 08:06:32;;;;;;;;;2.25;1.50;;;;;13.73;38.60;97091.53;4894482;28;102145;-88
2022/04/02 08:08:59;;;;;;;;;2.25;2.25;;;;;13.72;39.03;97095.34;4882577;28;102354;-88
2022/04/02 08:11:27;;;;;;;;;2.00;2.00;;;;;13.72;39.21;97095.34;4901128;28;103687;-89
2022/04/02 08:13:54;;;;;;;;;1.00;1.00;;;;;13.72;39.09;97100.75;4890671;28;102264;-89
2022/04/02 08:16:21;;;;;;;;;1.00;1.00;;;;;13.70;39.15;97092.88;4878077;28;102155;-89
2022/04/02 08:18:48;;;;;;;;;2.00;2.00;;;;;13.71;38.86;97104.56;4863241;28;102226;-88
2022/04/02 08:21:16;;;;;;;;;2.50;2.50;;;;;13.71;38.90;97109.97;4879253;28;103576;-89
2022/04/02 08:23:43;;;;;;;;;5.00;2.25;;;;;13.72;39.73;97120.59;4892254;28;101971;-88
2022/04/02 08:26:19;;;;;;;;;3.75;3.00;;;;;13.71;39.56;97116.25;4903786;28;102113;-89
2022/04/02 08:29:07;;;;;;;;;2.00;2.00;;;;;13.71;39.52;97126.28;4898519;28;102007;-89
2022/04/02 08:31:34;;;;;;;;;2.00;2.00;;;;;13.71;39.05;97118.97;4888064;28;107868;-89
2022/04/02 08:34:32;;;;;;;;;2.50;2.00;;;;;13.71;39.01;97127.09;4884526;28;102071;-88
2022/04/02 08:37:05;;;;;;;;;2.75;2.00;;;;;13.71;38.90;97129.00;4879648;28;103715;-86
2022/04/02 08:40:19;;;;;;;;;3.50;3.00;;;;;13.71;39.80;97118.13;4884913;28;101878;-87
2022/04/02 08:43:01;;;;;;;;;2.00;2.00;;;;;13.71;39.38;97123.56;4886132;28;107935;-88
2022/04/02 08:45:37;;;;;;;;;2.75;2.75;;;;;13.71;39.49;97131.72;4890683;28;101693;-87
2022/04/02 08:48:34;;;;;;;;;2.00;2.00;;;;;13.71;38.59;97124.38;4860890;28;102450;-87
2022/04/02 08:51:14;;;;;;;;;3.25;3.00;;;;;13.73;38.63;97135.00;4903015;28;103020;-88
2022/04/02 08:53:56;;;;;;;;;1.75;1.75;;;;;13.71;39.67;97132.53;4905170;28;103606;-87
2022/04/02 08:56:25;;;;;;;;;4.00;3.00;;;;;13.70;39.23;97136.31;4898775;28;102182;-88
2022/04/02 08:59:05;;;;;;;;;3.25;2.50;;;;;13.71;38.86;97140.69;4906066;28;101663;-88
2022/04/02 09:01:49;;;;;;;;;3.00;2.25;;;;;13.71;39.22;97143.41;4901467;28;101743;-88
2022/04/02 09:04:26;;;;;;;;;2.25;2.00;;;;;13.70;39.08;97149.91;4877088;28;103471;-88
2022/04/02 09:07:16;;;;;;;;;2.00;2.00;;;;;13.70;39.17;97149.09;4881719;28;103844;-87
2022/04/02 09:09:58;;;;;;;;;3.00;2.75;;;;;13.71;39.20;97154.28;4894502;28;102768;-88
2022/04/02 09:12:31;;;;;;;;;3.25;3.00;;;;;13.68;40.25;97152.06;4907962;28;102308;-89
2022/04/02 09:18:54;;;;;;;;;2.00;2.00;;;;;13.73;41.30;97157.53;4886737;28;101931;-84
2022/04/02 09:21:44;;;;;;;;;3.00;3.00;;;;;13.77;40.99;97158.69;4882165;28;102364;-84
2022/04/02 09:24:21;;;;;;;;;5.00;3.50;;;;;13.80;41.98;97157.34;4878492;28;102441;-83
2022/04/02 09:26:58;;;;;;;;;3.50;3.00;;;;;13.83;43.01;97156.81;4862362;28;103614;-86
2022/04/02 09:29:51;;;;;;;;;3.50;2.50;;;;;13.87;43.76;97170.72;4874558;28;102304;-89
2022/04/02 09:32:57;;;;;;;;;4.00;4.00;;;;;13.89;44.12;97168.56;4830016;28;102651;-89
2022/04/02 09:35:49;;;;;;;;;4.00;4.00;;;;;13.90;44.88;97168.31;4875270;28;102133;-88
2022/04/02 09:38:35;;;;;;;;;4.25;4.00;;;;;13.88;46.54;97170.47;4890058;28;108529;-88
2022/04/02 09:41:25;;;;;;;;;6.00;4.00;;;;;13.90;45.01;97162.06;4882027;28;102241;-90
2022/04/02 09:43:59;;;;;;;;;6.00;5.25;;;;;13.90;45.13;97171.03;4893129;28;104519;-90
2022/04/02 09:46:54;;;;;;;;;4.75;4.50;;;;;13.91;43.96;97172.69;4866866;28;101812;-88
2022/04/02 09:49:24;;;;;;;;;6.50;5.75;;;;;13.90;43.53;97173.75;4885309;28;107951;-90
2022/04/02 09:52:06;;;;;;;;;6.00;5.00;;;;;13.89;44.58;97174.81;4893072;28;103301;-90
2022/04/02 09:54:46;;;;;;;;;5.00;5.00;;;;;13.90;43.52;97184.63;4886006;28;102724;-89
2022/04/02 09:57:40;;;;;;;;;8.25;7.50;;;;;13.90;43.78;97184.63;4893394;28;102197;-90
2022/04/02 10:00:10;;;;;;;;;8.50;8.00;;;;;13.91;43.73;97188.16;4898600;28;108309;-90
2022/04/02 10:03:18;;;;;;;;;9.25;7.25;;;;;13.91;42.95;97180.84;4893666;28;103111;-89
2022/04/02 10:05:54;;;;;;;;;8.50;7.25;;;;;13.91;42.66;97183.56;4875773;28;102404;-89
2022/04/02 10:08:39;;;;;;;;;7.50;6.75;;;;;13.92;42.80;97181.63;4877682;28;104747;-90
2022/04/02 10:11:08;;;;;;;;;8.75;8.00;;;;;13.93;42.38;97189.53;4888549;28;110399;-92
2022/04/02 10:13:35;;;;;;;;;10.75;8.25;;;;;13.92;42.93;97182.44;4882395;28;102369;-89
2022/04/02 10:16:03;;;;;;;;;9.25;8.00;;;;;13.92;42.30;97187.88;4896213;28;101765;-91
2022/04/02 10:18:34;;;;;;;;;6.00;6.00;;;;;13.92;42.32;97184.34;4901294;28;103357;-89
2022/04/02 10:21:05;;;;;;;;;6.25;6.25;;;;;13.92;42.05;97195.22;4890758;28;103361;-89
2022/04/02 10:23:35;;;;;;;;;12.50;8.50;;;;;13.92;42.80;97198.75;4894389;28;101817;-90
2022/04/02 10:26:07;;;;;;;;;9.50;8.00;;;;;13.91;42.61;97183.56;4902917;28;102726;-90
2022/04/02 10:28:50;;;;;;;;;7.75;6.25;;;;;13.92;42.23;97193.31;4900305;28;101806;-90
2022/04/02 10:31:50;;;;;;;;;9.50;7.00;;;;;13.92;41.93;97206.91;4905111;28;103292;-90
2022/04/02 10:34:33;;;;;;;;;10.25;8.25;;;;;13.93;41.93;97202.28;4878115;28;102186;-92
2022/04/02 10:37:12;;;;;;;;;10.00;9.75;;;;;13.91;41.94;97205.28;4879740;28;102063;-90
2022/04/02 10:39:52;;;;;;;;;13.50;10.50;;;;;13.92;41.67;97203.38;4890367;28;103275;-89
2022/04/02 10:42:19;;;;;;;;;9.50;9.00;;;;;13.91;41.79;97208.00;4889648;28;103414;-87
2022/04/02 10:44:58;;;;;;;;;9.00;9.00;;;;;13.91;41.13;97199.03;4894914;28;101692;-91
2022/04/02 10:47:27;;;;;;;;;7.75;7.00;;;;;13.91;42.83;97202.56;4895451;28;101723;-88
2022/04/02 10:50:03;;;;;;;;;10.00;9.75;;;;;13.93;41.94;97205.00;4877500;28;102335;-91
2022/04/02 10:52:31;;;;;;;;;9.00;8.25;;;;;13.92;42.08;97209.63;4897691;28;108195;-85
2022/04/02 10:54:58;;;;;;;;;10.50;9.00;;;;;13.93;42.19;97205.00;4893962;28;102179;-90
2022/04/02 10:57:29;;;;;;;;;11.00;9.50;;;;;13.92;42.01;97215.06;4890727;28;102274;-87
2022/04/02 11:00:01;;;;;;;;;9.75;8.00;;;;;13.93;41.98;97210.44;4896679;28;102529;-90
2022/04/02 11:02:41;;;;;;;;;8.00;8.00;;;;;13.91;41.93;97210.72;4883130;28;108665;-88
2022/04/02 11:05:13;;;;;;;;;10.25;9.50;;;;;13.92;41.82;97217.78;4868225;28;102157;-89
2022/04/02 11:07:49;;;;;;;;;9.00;9.00;;;;;13.92;40.77;97214.22;4895551;28;101901;-88
2022/04/02 11:10:19;;;;;;;;;9.00;7.75;;;;;13.91;41.75;97213.44;4901139;28;102037;-89
2022/04/02 11:12:48;;;;;;;;;9.75;8.25;;;;;13.91;40.62;97218.06;4880032;28;103787;-90
2022/04/02 11:15:20;;;;;;;;;9.00;7.75;;;;;13.89;41.47;97218.28;4874188;28;102285;-90
2022/04/02 11:17:48;;;;;;;;;9.00;6.75;;;;;13.89;40.69;97221.00;4880338;28;103646;-89
2022/04/02 11:20:21;;;;;;;;;8.00;8.00;;;;;13.86;40.53;97218.81;4901463;28;102889;-88
2022/04/02 11:22:51;;;;;;;;;7.00;7.00;;;;;13.85;41.23;97218.00;4912356;28;103371;-89
2022/04/02 11:25:24;;;;;;;;;8.00;7.00;;;;;13.86;40.92;97224.25;4895145;28;102037;-89
2022/04/02 11:27:58;;;;;;;;;9.25;9.00;;;;;13.85;41.12;97230.75;4875896;28;101850;-90
2022/04/02 11:30:28;;;;;;;;;10.00;8.00;;;;;13.84;40.01;97224.50;4874008;28;102118;-88
2022/04/02 11:33:16;;;;;;;;;7.75;6.75;;;;;13.85;40.98;97241.63;4884292;28;103512;-88
2022/04/02 11:35:51;;;;;;;;;11.00;9.75;;;;;13.84;40.85;97240.78;4900225;28;101960;-87
2022/04/02 11:38:24;;;;;;;;;10.00;9.00;;;;;13.84;40.03;97234.53;4894167;28;101998;-88
2022/04/02 11:40:59;;;;;;;;;9.25;8.50;;;;;13.84;40.12;97240.78;4888660;28;102265;-88
2022/04/02 11:43:36;;;;;;;;;11.00;8.50;;;;;13.85;40.50;97244.34;4896309;28;104808;-86
2022/04/02 11:46:05;;;;;;;;;9.50;8.25;;;;;13.85;40.68;97247.06;4890445;28;102156;-86
2022/04/02 11:48:34;;;;;;;;;9.25;8.25;;;;;13.83;40.42;97241.88;4872529;28;103026;-87
2022/04/02 11:51:15;;;;;;;;;8.75;7.75;;;;;13.84;40.53;97246.22;4896629;28;102189;-90